createdAt,value
2017-10-30T00:01:29.114Z,8.20
2017-10-30T00:03:56.035Z,8.20
2017-10-30T00:06:23.004Z,8.20
2017-10-30T00:08:49.941Z,8.20
2017-10-30T00:11:16.897Z,8.10
2017-10-30T00:13:43.200Z,8.10
2017-10-30T00:16:10.011Z,8.00
2017-10-30T00:18:37.064Z,8.00
2017-10-30T00:21:04.124Z,7.90
2017-10-30T00:23:31.521Z,7.80
2017-10-30T00:25:58.692Z,7.80
2017-10-30T00:28:31.220Z,7.80
2017-10-30T00:30:58.254Z,7.70
2017-10-30T00:33:24.602Z,7.70
2017-10-30T00:35:52.227Z,7.80
2017-10-30T00:38:18.972Z,7.80
2017-10-30T00:40:45.292Z,7.70
2017-10-30T00:43:12.229Z,7.60
2017-10-30T00:45:38.540Z,7.60
2017-10-30T00:48:05.603Z,7.60
2017-10-30T00:50:32.028Z,7.60
2017-10-30T00:52:59.852Z,7.60
2017-10-30T00:55:26.157Z,7.50
2017-10-30T00:57:53.350Z,7.50
2017-10-30T01:00:19.683Z,7.50
2017-10-30T01:02:46.630Z,7.50
2017-10-30T01:05:13.373Z,7.50
2017-10-30T01:07:40.541Z,7.40
2017-10-30T01:10:06.848Z,7.50
2017-10-30T01:12:33.199Z,7.40
2017-10-30T01:14:59.537Z,7.40
2017-10-30T01:17:25.845Z,7.30
2017-10-30T01:19:52.260Z,7.30
2017-10-30T01:22:19.353Z,7.20
2017-10-30T01:24:46.326Z,7.10
2017-10-30T01:27:12.647Z,7.00
2017-10-30T01:29:38.987Z,7.00
2017-10-30T01:32:05.339Z,7.10
2017-10-30T01:34:31.667Z,7.00
2017-10-30T01:36:58.547Z,7.00
2017-10-30T01:39:24.883Z,6.80
2017-10-30T01:41:51.948Z,6.90
2017-10-30T01:44:19.138Z,6.70
2017-10-30T01:46:45.492Z,6.80
2017-10-30T01:49:11.916Z,6.70
2017-10-30T01:51:38.281Z,6.60
2017-10-30T01:54:05.745Z,6.50
2017-10-30T01:56:32.798Z,6.50
2017-10-30T01:58:59.151Z,6.40
2017-10-30T02:01:25.931Z,6.40
2017-10-30T02:03:52.929Z,6.40
2017-10-30T02:06:19.251Z,6.40
2017-10-30T02:08:46.035Z,6.30
2017-10-30T02:11:12.387Z,6.40
2017-10-30T02:13:39.443Z,6.30
2017-10-30T02:16:06.563Z,6.30
2017-10-30T02:18:32.887Z,6.30
2017-10-30T02:20:59.337Z,6.30
2017-10-30T02:23:26.123Z,6.40
2017-10-30T02:25:53.847Z,6.30
2017-10-30T02:28:20.209Z,6.30
2017-10-30T02:30:46.543Z,6.30
2017-10-30T02:33:12.919Z,6.30
2017-10-30T02:35:39.255Z,6.30
2017-10-30T02:38:05.978Z,6.40
2017-10-30T02:40:33.127Z,6.30
2017-10-30T02:43:01.058Z,6.40
2017-10-30T02:45:27.433Z,6.30
2017-10-30T02:47:54.525Z,6.40
2017-10-30T02:50:21.320Z,6.30
2017-10-30T02:52:48.107Z,6.40
2017-10-30T02:55:15.123Z,6.30
2017-10-30T02:57:41.469Z,6.30
2017-10-30T03:00:09.246Z,6.30
2017-10-30T03:02:36.383Z,6.30
2017-10-30T03:05:02.755Z,6.30
2017-10-30T03:07:29.518Z,6.30
2017-10-30T03:09:55.867Z,6.30
2017-10-30T03:12:22.231Z,6.30
2017-10-30T03:14:48.625Z,6.30
2017-10-30T03:17:15.011Z,6.30
2017-10-30T03:19:41.517Z,6.40
2017-10-30T03:22:07.890Z,6.40
2017-10-30T03:24:35.127Z,6.40
2017-10-30T03:27:01.486Z,6.50
2017-10-30T03:29:27.839Z,6.40
2017-10-30T03:31:54.935Z,6.40
2017-10-30T03:34:21.277Z,6.40
2017-10-30T03:36:48.215Z,6.50
2017-10-30T03:39:14.578Z,6.50
2017-10-30T03:41:40.892Z,6.50
2017-10-30T03:44:07.281Z,6.40
2017-10-30T03:46:34.963Z,6.50
2017-10-30T03:49:02.047Z,6.40
2017-10-30T03:51:43.966Z,6.40
2017-10-30T03:54:10.297Z,6.50
2017-10-30T03:56:37.202Z,6.50
2017-10-30T03:59:03.561Z,6.50
2017-10-30T04:01:29.892Z,6.50
2017-10-30T04:03:56.281Z,6.40
2017-10-30T04:06:23.347Z,6.50
2017-10-30T04:08:50.787Z,6.50
2017-10-30T04:11:17.123Z,6.40
2017-10-30T04:13:43.462Z,6.40
2017-10-30T04:16:09.806Z,6.40
2017-10-30T04:18:36.149Z,6.40
2017-10-30T04:21:02.554Z,6.40
2017-10-30T04:23:29.299Z,6.40
2017-10-30T04:25:56.047Z,6.50
2017-10-30T04:28:22.363Z,6.50
2017-10-30T04:30:48.707Z,6.40
2017-10-30T04:33:15.671Z,6.40
2017-10-30T04:35:42.393Z,6.40
2017-10-30T04:38:09.291Z,6.40
2017-10-30T04:40:35.603Z,6.40
2017-10-30T04:43:01.955Z,6.40
2017-10-30T04:45:28.305Z,6.50
2017-10-30T04:47:54.611Z,6.50
2017-10-30T04:50:21.439Z,6.50
2017-10-30T04:52:47.796Z,6.50
2017-10-30T04:55:14.537Z,6.50
2017-10-30T04:57:40.851Z,6.50
2017-10-30T05:00:07.723Z,6.40
2017-10-30T05:02:35.094Z,6.50
2017-10-30T05:05:02.170Z,6.50
2017-10-30T05:07:29.086Z,6.50
2017-10-30T05:09:55.398Z,6.50
2017-10-30T05:12:21.719Z,6.50
2017-10-30T05:14:48.616Z,6.50
2017-10-30T05:17:14.918Z,6.50
2017-10-30T05:19:56.717Z,6.50
2017-10-30T05:22:23.564Z,6.60
2017-10-30T05:24:50.543Z,6.60
2017-10-30T05:27:17.663Z,6.60
2017-10-30T05:29:43.977Z,6.70
2017-10-30T05:32:10.325Z,6.70
2017-10-30T05:34:36.646Z,6.70
2017-10-30T05:37:03.345Z,6.70
2017-10-30T05:39:29.645Z,6.70
2017-10-30T05:41:55.967Z,6.70
2017-10-30T05:44:22.323Z,6.70
2017-10-30T05:46:49.110Z,6.70
2017-10-30T05:49:15.433Z,6.90
2017-10-30T05:51:42.287Z,7.00
2017-10-30T05:54:08.641Z,6.90
2017-10-30T05:56:34.980Z,7.00
2017-10-30T05:59:01.684Z,7.10
2017-10-30T06:01:28.009Z,7.10
2017-10-30T06:03:54.309Z,7.10
2017-10-30T06:06:21.829Z,7.10
2017-10-30T06:08:48.780Z,7.10
2017-10-30T06:11:15.739Z,7.10
2017-10-30T06:13:42.051Z,7.20
2017-10-30T06:16:08.361Z,7.20
2017-10-30T06:18:35.273Z,7.30
2017-10-30T06:21:01.713Z,7.30
2017-10-30T06:23:28.542Z,7.30
2017-10-30T06:25:55.283Z,7.30
2017-10-30T06:28:21.600Z,7.20
2017-10-30T06:30:47.935Z,7.10
2017-10-30T06:33:14.300Z,7.20
2017-10-30T06:35:40.676Z,7.10
2017-10-30T06:38:08.506Z,7.20
2017-10-30T06:40:34.853Z,7.10
2017-10-30T06:43:01.186Z,7.30
2017-10-30T06:45:27.902Z,7.30
2017-10-30T06:47:54.209Z,7.40
2017-10-30T06:50:21.115Z,7.50
2017-10-30T06:52:48.924Z,7.50
2017-10-30T06:55:16.741Z,7.50
2017-10-30T06:57:43.701Z,7.50
2017-10-30T07:00:10.039Z,7.50
2017-10-30T07:02:37.133Z,7.50
2017-10-30T07:05:04.047Z,7.60
2017-10-30T07:07:30.388Z,7.60
2017-10-30T07:09:57.527Z,7.50
2017-10-30T07:12:23.859Z,7.60
2017-10-30T07:14:50.723Z,7.60
2017-10-30T07:17:17.625Z,7.60
2017-10-30T07:19:44.518Z,7.50
2017-10-30T07:22:11.284Z,7.50
2017-10-30T07:24:38.069Z,7.50
2017-10-30T07:27:05.777Z,7.50
2017-10-30T07:29:32.092Z,7.50
2017-10-30T07:31:58.418Z,7.60
2017-10-30T07:34:24.760Z,7.70
2017-10-30T07:36:51.751Z,7.80
2017-10-30T07:39:18.089Z,7.80
2017-10-30T07:41:45.124Z,7.70
2017-10-30T07:44:11.444Z,7.80
2017-10-30T07:46:38.445Z,7.80
2017-10-30T07:49:05.512Z,7.80
2017-10-30T07:51:32.376Z,7.80
2017-10-30T07:53:59.567Z,8.00
2017-10-30T07:56:25.945Z,8.00
2017-10-30T07:58:53.073Z,7.80
2017-10-30T08:01:19.872Z,7.80
2017-10-30T08:03:46.338Z,7.90
2017-10-30T08:06:13.400Z,8.00
2017-10-30T08:08:40.265Z,8.00
2017-10-30T08:11:06.618Z,8.00
2017-10-30T08:13:34.560Z,8.00
2017-10-30T08:16:01.392Z,8.00
2017-10-30T08:18:28.099Z,7.90
2017-10-30T08:20:54.459Z,7.90
2017-10-30T08:23:21.143Z,8.10
2017-10-30T08:25:47.508Z,8.00
2017-10-30T08:28:13.900Z,8.10
2017-10-30T08:30:40.333Z,8.00
2017-10-30T08:33:06.699Z,8.10
2017-10-30T08:35:33.408Z,8.10
2017-10-30T08:38:00.347Z,8.10
2017-10-30T08:40:27.533Z,8.10
2017-10-30T08:42:53.907Z,8.10
2017-10-30T08:45:21.984Z,8.20
2017-10-30T08:47:49.096Z,8.20
2017-10-30T08:50:15.498Z,8.20
2017-10-30T08:52:42.489Z,8.20
2017-10-30T08:55:08.857Z,8.20
2017-10-30T08:57:36.048Z,7.90
2017-10-30T09:00:02.425Z,7.90
2017-10-30T09:02:29.332Z,7.90
2017-10-30T09:04:56.362Z,8.00
2017-10-30T09:07:23.473Z,7.70
2017-10-30T09:09:50.130Z,7.70
2017-10-30T09:12:17.289Z,7.50
2017-10-30T09:14:43.641Z,7.50
2017-10-30T09:17:10.885Z,7.50
2017-10-30T09:19:37.746Z,7.50
2017-10-30T09:22:04.845Z,7.50
2017-10-30T09:24:31.583Z,7.50
2017-10-30T09:26:58.007Z,7.50
2017-10-30T09:29:24.369Z,7.50
2017-10-30T09:31:50.778Z,7.50
2017-10-30T09:34:17.128Z,7.60
2017-10-30T09:36:44.803Z,7.60
2017-10-30T09:39:11.225Z,7.70
2017-10-30T09:41:38.288Z,7.70
2017-10-30T09:44:05.311Z,7.80
2017-10-30T09:46:32.439Z,7.70
2017-10-30T09:48:59.808Z,7.70
2017-10-30T09:51:27.659Z,7.80
2017-10-30T09:53:54.022Z,7.70
2017-10-30T09:56:20.391Z,7.90
2017-10-30T09:58:46.793Z,7.80
2017-10-30T10:01:13.156Z,7.80
2017-10-30T10:03:41.190Z,7.60
2017-10-30T10:06:07.556Z,7.60
2017-10-30T10:08:34.662Z,7.50
2017-10-30T10:11:01.404Z,7.40
2017-10-30T10:13:27.775Z,7.50
2017-10-30T10:15:54.172Z,7.50
2017-10-30T10:18:20.914Z,7.40
2017-10-30T10:20:47.267Z,7.30
2017-10-30T10:23:14.230Z,7.30
2017-10-30T10:25:40.596Z,7.40
2017-10-30T10:28:07.716Z,7.40
2017-10-30T10:30:34.201Z,7.40
2017-10-30T10:33:01.318Z,7.50
2017-10-30T10:35:28.158Z,7.50
2017-10-30T10:37:55.211Z,7.60
2017-10-30T10:40:22.189Z,7.70
2017-10-30T10:42:49.718Z,7.80
2017-10-30T10:45:16.075Z,7.70
2017-10-30T10:47:42.932Z,7.80
2017-10-30T10:50:10.055Z,8.00
2017-10-30T10:52:36.595Z,8.00
2017-10-30T10:55:03.060Z,8.00
2017-10-30T10:57:29.512Z,7.90
2017-10-30T10:59:56.332Z,7.90
2017-10-30T11:02:23.697Z,8.00
2017-10-30T11:04:50.432Z,8.00
2017-10-30T11:07:17.519Z,8.00
2017-10-30T11:09:44.648Z,8.00
2017-10-30T11:12:10.980Z,8.10
2017-10-30T11:14:38.094Z,8.10
2017-10-30T11:17:04.869Z,8.00
2017-10-30T11:19:31.470Z,8.00
2017-10-30T11:21:58.032Z,8.00
2017-10-30T11:24:25.061Z,8.10
2017-10-30T11:26:52.385Z,8.20
2017-10-30T11:29:18.785Z,8.20
2017-10-30T11:31:45.623Z,8.10
2017-10-30T11:34:11.966Z,8.10
2017-10-30T11:36:39.564Z,8.10
2017-10-30T11:39:05.900Z,8.10
2017-10-30T11:41:32.228Z,8.10
2017-10-30T11:43:59.332Z,8.00
2017-10-30T11:46:26.440Z,8.10
2017-10-30T11:48:53.692Z,8.00
2017-10-30T11:51:20.324Z,7.90
2017-10-30T11:53:46.823Z,7.90
2017-10-30T11:56:14.065Z,7.80
2017-10-30T11:58:40.744Z,7.80
2017-10-30T12:01:07.085Z,7.90
2017-10-30T12:03:33.985Z,7.90
2017-10-30T12:06:00.309Z,7.90
2017-10-30T12:08:26.632Z,7.90
2017-10-30T12:10:52.998Z,7.90
2017-10-30T12:13:19.308Z,7.80
2017-10-30T12:15:45.743Z,7.80
2017-10-30T12:18:12.097Z,7.80
2017-10-30T12:20:38.407Z,7.80
2017-10-30T12:23:05.591Z,7.90
2017-10-30T12:25:32.345Z,8.00
2017-10-30T12:27:59.284Z,8.00
2017-10-30T12:30:25.924Z,8.10
2017-10-30T12:32:52.252Z,8.10
2017-10-30T12:35:19.116Z,8.10
2017-10-30T12:37:45.892Z,8.10
2017-10-30T12:40:12.972Z,8.00
2017-10-30T12:42:39.892Z,8.00
2017-10-30T12:45:06.956Z,8.00
2017-10-30T12:47:34.019Z,7.90
2017-10-30T12:50:00.500Z,7.90
2017-10-30T12:52:26.881Z,7.90
2017-10-30T12:54:54.424Z,8.00
2017-10-30T12:57:20.788Z,7.90
2017-10-30T12:59:47.869Z,8.00
2017-10-30T13:02:14.358Z,8.00
2017-10-30T13:04:40.693Z,8.00
2017-10-30T13:07:07.213Z,8.00
2017-10-30T13:09:33.700Z,7.90
2017-10-30T13:12:00.795Z,7.90
2017-10-30T13:14:27.132Z,7.90
2017-10-30T13:16:54.013Z,7.90
2017-10-30T13:19:20.393Z,7.90
2017-10-30T13:21:46.751Z,7.90
2017-10-30T13:24:13.597Z,8.00
2017-10-30T13:26:40.048Z,8.00
2017-10-30T13:29:06.782Z,8.10
2017-10-30T13:31:33.092Z,8.10
2017-10-30T13:34:00.074Z,8.20
2017-10-30T13:36:26.981Z,8.10
2017-10-30T13:38:55.339Z,8.00
2017-10-30T13:41:21.727Z,8.00
2017-10-30T13:43:48.065Z,8.00
2017-10-30T13:46:15.096Z,8.00
2017-10-30T13:48:41.433Z,8.00
2017-10-30T13:51:08.127Z,8.00
2017-10-30T13:53:34.986Z,7.90
2017-10-30T13:56:01.878Z,8.00
2017-10-30T13:58:28.213Z,8.00
2017-10-30T14:00:54.551Z,8.10
2017-10-30T14:03:20.909Z,8.10
2017-10-30T14:05:47.227Z,8.10
2017-10-30T14:08:13.644Z,8.20
2017-10-30T14:10:40.786Z,8.10
2017-10-30T14:13:07.517Z,8.10
2017-10-30T14:15:34.368Z,8.10
2017-10-30T14:18:00.712Z,8.10
2017-10-30T14:20:27.065Z,8.00
2017-10-30T14:22:54.500Z,8.10
2017-10-30T14:25:21.294Z,8.10
2017-10-30T14:27:47.909Z,8.20
2017-10-30T14:30:15.445Z,8.20
2017-10-30T14:32:41.805Z,8.20
2017-10-30T14:35:08.148Z,8.20
2017-10-30T14:37:35.997Z,8.30
2017-10-30T14:40:02.382Z,8.40
2017-10-30T14:42:28.730Z,8.40
2017-10-30T14:44:55.159Z,8.30
2017-10-30T14:47:21.521Z,8.30
2017-10-30T14:49:48.378Z,8.40
2017-10-30T14:52:14.735Z,8.40
2017-10-30T14:54:41.713Z,8.40
2017-10-30T14:57:08.815Z,8.40
2017-10-30T14:59:35.167Z,8.40
2017-10-30T15:02:02.082Z,8.30
2017-10-30T15:04:29.169Z,8.30
2017-10-30T15:06:55.680Z,8.20
2017-10-30T15:09:22.031Z,8.20
2017-10-30T15:11:54.680Z,8.10
2017-10-30T15:14:21.632Z,8.10
2017-10-30T15:16:48.560Z,8.10
2017-10-30T15:19:15.655Z,7.90
2017-10-30T15:21:42.032Z,8.00
2017-10-30T15:24:09.078Z,7.90
2017-10-30T15:26:35.431Z,7.70
2017-10-30T15:29:02.207Z,7.90
2017-10-30T15:31:28.568Z,7.80
2017-10-30T15:33:54.929Z,7.70
2017-10-30T15:36:21.742Z,7.70
2017-10-30T15:38:48.836Z,7.70
2017-10-30T15:41:15.199Z,7.70
2017-10-30T15:43:42.308Z,7.60
2017-10-30T15:46:08.711Z,7.60
2017-10-30T15:48:35.719Z,7.50
2017-10-30T15:51:02.863Z,7.60
2017-10-30T15:53:29.191Z,7.60
2017-10-30T15:55:56.327Z,7.60
2017-10-30T15:58:22.656Z,7.50
2017-10-30T16:00:48.985Z,7.50
2017-10-30T16:03:15.345Z,7.50
2017-10-30T16:05:42.143Z,7.40
2017-10-30T16:08:09.215Z,7.40
2017-10-30T16:10:35.952Z,7.40
2017-10-30T16:13:02.517Z,7.50
2017-10-30T16:15:28.843Z,7.40
2017-10-30T16:17:55.779Z,7.40
2017-10-30T16:20:23.372Z,7.40
2017-10-30T16:22:50.270Z,7.40
2017-10-30T16:25:17.021Z,7.40
2017-10-30T16:27:43.359Z,7.30
2017-10-30T16:30:10.497Z,7.40
2017-10-30T16:32:36.895Z,7.30
2017-10-30T16:35:03.247Z,7.30
2017-10-30T16:37:30.213Z,7.30
2017-10-30T16:39:56.559Z,7.30
2017-10-30T16:42:23.406Z,7.30
2017-10-30T16:44:50.550Z,7.30
2017-10-30T16:47:16.895Z,7.30
2017-10-30T16:49:43.949Z,7.30
2017-10-30T16:52:11.096Z,7.30
2017-10-30T16:54:37.463Z,7.30
2017-10-30T16:57:04.927Z,7.20
2017-10-30T16:59:32.022Z,7.30
2017-10-30T17:01:58.356Z,7.30
2017-10-30T17:04:24.849Z,7.40
2017-10-30T17:06:51.156Z,7.40
2017-10-30T17:09:17.581Z,7.40
2017-10-30T17:11:43.948Z,7.40
2017-10-30T17:14:10.279Z,7.60
2017-10-30T17:16:37.429Z,7.70
2017-10-30T17:19:04.485Z,7.60
2017-10-30T17:21:30.801Z,7.60
2017-10-30T17:24:09.945Z,7.40
2017-10-30T17:26:37.770Z,7.50
2017-10-30T17:29:04.124Z,7.50
2017-10-30T17:31:30.534Z,7.50
2017-10-30T17:33:57.593Z,7.50
2017-10-30T17:36:25.007Z,7.50
2017-10-30T17:38:51.947Z,7.60
2017-10-30T17:41:18.288Z,7.60
2017-10-30T17:43:45.157Z,7.60
2017-10-30T17:46:12.085Z,7.70
2017-10-30T17:48:38.447Z,7.70
2017-10-30T17:51:05.157Z,7.70
2017-10-30T17:53:31.509Z,7.80
2017-10-30T17:55:58.567Z,7.80
2017-10-30T17:58:24.919Z,7.80
2017-10-30T18:00:51.255Z,7.90
2017-10-30T18:03:19.230Z,7.90
2017-10-30T18:05:46.308Z,7.90
2017-10-30T18:08:12.676Z,7.80
2017-10-30T18:10:39.054Z,8.00
2017-10-30T18:13:05.382Z,7.90
2017-10-30T18:15:32.129Z,7.80
2017-10-30T18:17:59.071Z,7.50
2017-10-30T18:20:25.924Z,7.60
2017-10-30T18:22:52.788Z,7.60
2017-10-30T18:25:20.229Z,7.40
2017-10-30T18:27:47.182Z,7.40
2017-10-30T18:30:14.023Z,7.40
2017-10-30T18:32:40.381Z,7.30
2017-10-30T18:35:07.879Z,7.30
2017-10-30T18:37:35.051Z,7.30
2017-10-30T18:40:01.849Z,7.30
2017-10-30T18:42:28.968Z,7.20
2017-10-30T18:44:55.652Z,7.20
2017-10-30T18:47:22.711Z,7.20
2017-10-30T18:49:50.826Z,7.20
2017-10-30T18:52:17.140Z,7.20
2017-10-30T18:54:43.533Z,7.20
2017-10-30T18:57:10.628Z,7.20
2017-10-30T18:59:37.007Z,7.20
2017-10-30T19:02:03.535Z,7.20
2017-10-30T19:04:30.181Z,7.20
2017-10-30T19:06:56.613Z,7.20
2017-10-30T19:09:22.950Z,7.20
2017-10-30T19:11:49.358Z,7.20
2017-10-30T19:14:16.109Z,7.20
2017-10-30T19:16:42.911Z,7.20
2017-10-30T19:19:10.066Z,7.20
2017-10-30T19:21:37.156Z,7.20
2017-10-30T19:24:04.885Z,7.20
2017-10-30T19:26:31.297Z,7.10
2017-10-30T19:28:57.783Z,7.20
2017-10-30T19:31:24.784Z,7.10
2017-10-30T19:33:51.720Z,7.10
2017-10-30T19:36:18.815Z,7.10
2017-10-30T19:38:45.648Z,7.10
2017-10-30T19:41:12.457Z,7.10
2017-10-30T19:43:38.817Z,7.10
2017-10-30T19:46:05.209Z,7.10
2017-10-30T19:48:31.718Z,7.10
2017-10-30T19:50:58.094Z,7.10
2017-10-30T19:53:25.311Z,7.00
2017-10-30T19:55:51.748Z,7.00
2017-10-30T19:58:18.897Z,7.00
2017-10-30T20:00:45.871Z,7.00
2017-10-30T20:03:13.327Z,7.10
2017-10-30T20:05:45.950Z,7.10
2017-10-30T20:08:19.201Z,7.10
2017-10-30T20:10:52.164Z,7.10
2017-10-30T20:13:18.585Z,7.10
2017-10-30T20:15:45.570Z,7.10
2017-10-30T20:18:12.357Z,7.10
2017-10-30T20:20:39.436Z,7.10
2017-10-30T20:23:06.273Z,7.10
2017-10-30T20:25:33.005Z,7.10
2017-10-30T20:28:00.105Z,7.10
2017-10-30T20:30:26.442Z,7.10
2017-10-30T20:32:53.385Z,7.10
2017-10-30T20:35:20.295Z,7.10
2017-10-30T20:37:47.727Z,7.10
2017-10-30T20:40:14.934Z,7.10
2017-10-30T20:42:41.596Z,7.00
2017-10-30T20:45:07.941Z,7.10
2017-10-30T20:47:34.412Z,7.00
2017-10-30T20:50:01.080Z,7.10
2017-10-30T20:52:28.233Z,7.10
2017-10-30T20:54:55.345Z,7.10
2017-10-30T20:57:21.808Z,7.10
2017-10-30T20:59:48.608Z,7.10
2017-10-30T21:02:14.945Z,7.10
2017-10-30T21:04:41.721Z,7.10
2017-10-30T21:07:08.541Z,7.20
2017-10-30T21:09:35.359Z,7.10
2017-10-30T21:12:02.923Z,7.10
2017-10-30T21:14:30.344Z,7.10
2017-10-30T21:16:57.111Z,7.10
2017-10-30T21:19:23.424Z,7.20
2017-10-30T21:21:49.759Z,7.10
2017-10-30T21:24:16.478Z,7.20
2017-10-30T21:26:43.547Z,7.20
2017-10-30T21:29:10.559Z,7.20
2017-10-30T21:31:36.920Z,7.20
2017-10-30T21:34:03.898Z,7.20
2017-10-30T21:36:30.752Z,7.10
2017-10-30T21:38:57.598Z,7.20
2017-10-30T21:41:23.924Z,7.20
2017-10-30T21:43:50.270Z,7.10
2017-10-30T21:46:16.673Z,7.10
2017-10-30T21:48:42.988Z,7.20
2017-10-30T21:51:09.413Z,7.10
2017-10-30T21:53:36.944Z,7.10
2017-10-30T21:56:03.280Z,7.10
2017-10-30T21:58:30.143Z,7.10
2017-10-30T22:00:56.473Z,7.10
2017-10-30T22:03:22.823Z,7.10
2017-10-30T22:05:50.406Z,7.10
2017-10-30T22:08:16.749Z,7.00
2017-10-30T22:10:43.831Z,7.00
2017-10-30T22:13:10.164Z,7.00
2017-10-30T22:15:36.525Z,7.00
2017-10-30T22:18:09.184Z,7.00
2017-10-30T22:20:35.508Z,7.00
2017-10-30T22:23:02.257Z,6.90
2017-10-30T22:25:28.585Z,7.00
2017-10-30T22:27:54.900Z,6.90
2017-10-30T22:30:22.624Z,7.00
2017-10-30T22:32:49.490Z,6.90
2017-10-30T22:35:18.166Z,6.90
2017-10-30T22:37:45.429Z,6.90
2017-10-30T22:40:12.237Z,6.90
2017-10-30T22:42:38.564Z,6.90
2017-10-30T22:45:04.932Z,6.90
2017-10-30T22:47:31.260Z,6.90
2017-10-30T22:49:58.188Z,7.00
2017-10-30T22:52:25.178Z,6.90
2017-10-30T22:54:51.524Z,6.90
2017-10-30T22:57:17.879Z,6.90
2017-10-30T22:59:44.274Z,6.90
2017-10-30T23:02:10.612Z,6.90
2017-10-30T23:04:37.684Z,6.80
2017-10-30T23:07:04.684Z,6.80
2017-10-30T23:09:32.212Z,6.80
2017-10-30T23:11:58.588Z,6.80
2017-10-30T23:14:24.949Z,6.80
2017-10-30T23:16:52.131Z,6.70
2017-10-30T23:19:18.542Z,6.70
2017-10-30T23:21:44.878Z,6.70
2017-10-30T23:24:12.541Z,6.60
2017-10-30T23:26:38.862Z,6.60
2017-10-30T23:29:05.964Z,6.50
2017-10-30T23:31:33.015Z,6.50
2017-10-30T23:33:59.334Z,6.40
2017-10-30T23:36:26.340Z,6.30
2017-10-30T23:38:53.884Z,6.10
2017-10-30T23:41:20.217Z,6.10
2017-10-30T23:43:46.927Z,6.10
2017-10-30T23:46:13.254Z,6.10
2017-10-30T23:48:39.592Z,6.10
2017-10-30T23:51:05.940Z,6.00
2017-10-30T23:53:32.255Z,6.00
2017-10-30T23:55:58.702Z,5.90
2017-10-30T23:58:25.041Z,5.90
